Airfield :
LOGIN :

Register | Disclaimer

   EN    FR    IT 

 










Legend :    VFR   Marginal VFR   IFR   Intensive IFR   Very Intensive IFR
Visi :
Ceiling :
>= 8 km
>= 3000ft
5 to 8 km
1000 to 3000 ft
1500m to 5 km
500 to 1000 ft
800 to 1500m
200 to 500 ft
< 800m
< 200 ft
Symbols :   Thunderstorms  Fog  Heavy snow  Heavy precipitations  Wind > 20 kt
SIGMETs :     Misc.  Thunderstorms  Icing  Turbulence  Mountain Waves  Volcanic Ashes






- Airport Elevation : 179 ft


LIPI - Rivolto AFB Udine

CURRENT METAR :
  • 231411Z 14006KT 9999 FEW017 SCT035 21/18 Q1014 RETS RMK SCT VIS MIN 9999 WIND THR06 16005KT WIND THR24 17005KT BLU

EXPIRED METARs :
  • 231355Z 13007KT 9999 -TSRA FEW023CB SCT035 20/18 Q1015
  • 231332Z 14009KT 9999 -SHRA FEW023TCU SCT035 20/17 Q1015 RMK BKN VIS MIN 9999 WIND THR06 16007KT WIND THR24 18009KT BLU
  • 231255Z 15007KT 9999 FEW025 SCT035 23/15 Q1015 RMK BKN VIS MIN 9999 WIND THR06 18006KT WIND THR24 20007KT BLU
  • 231155Z VRB05KT 9999 FEW025 SCT030 23/15 Q1015 RMK BKN VIS MIN 9999 WIND THR06 20004KT WIND THR24 15005KT BLU
  • 231055Z VRB02KT 9999 FEW027 SCT040 22/16 Q1015
  • 230955Z 15003KT 070V230 9999 FEW025 SCT035 21/16 Q1016 RMK BKN VIS MIN 9999 WIND THR06 VRB02KT WIND THR24 VRB01KT BLU

TAF TAF LIPI
Valid from the 23 at 12:00 until the 23 at 21:00 UTC


231100Z 2312/2321 VRB05KT 9999 FEW025 SCT035
TEMPO 2312/2321 VRB15KT 4000 TSRA FEW020CB BKN030



MET'MAP, your aeronautical weather chart ! - Copyright ORBIFLY December 2007 - Disclaimer

ORBIFLY MET'MAP TEAM :

Programming & Development : Alexandra Zaïnal
Original concept : Baudouin d'Aumeries
Technical & hardware support : Manuel Goepfert
Assistance : Marc-Olivier Méhu




SOURCES & CREDITS :

   NOAA